createdAt,value
2024-04-09T00:00:47.267Z,100.00
2024-04-09T00:03:39.246Z,100.00
2024-04-09T00:06:15.859Z,100.00
2024-04-09T00:08:45.905Z,100.00
2024-04-09T00:11:23.204Z,100.00
2024-04-09T00:13:56.362Z,100.00
2024-04-09T00:16:29.498Z,100.00
2024-04-09T00:18:59.962Z,100.00
2024-04-09T00:21:32.128Z,100.00
2024-04-09T00:24:02.174Z,100.00
2024-04-09T00:26:33.447Z,100.00
2024-04-09T00:29:02.637Z,100.00
2024-04-09T00:31:30.911Z,100.00
2024-04-09T00:33:59.269Z,100.00
2024-04-09T00:36:29.982Z,100.00
2024-04-09T00:39:01.668Z,100.00
2024-04-09T00:41:32.050Z,100.00
2024-04-09T00:44:00.252Z,100.00
2024-04-09T00:46:29.415Z,100.00
2024-04-09T00:48:58.660Z,100.00
2024-04-09T00:51:33.659Z,100.00
2024-04-09T00:54:04.736Z,100.00
2024-04-09T00:56:34.894Z,100.00
2024-04-09T00:59:03.158Z,100.00
2024-04-09T01:01:32.157Z,100.00
2024-04-09T01:04:00.511Z,100.00
2024-04-09T01:06:28.821Z,100.00
2024-04-09T01:08:57.034Z,100.00
2024-04-09T01:11:25.069Z,100.00
2024-04-09T01:13:54.462Z,100.00
2024-04-09T01:16:22.880Z,100.00
2024-04-09T01:18:53.890Z,100.00
2024-04-09T01:21:26.232Z,100.00
2024-04-09T01:23:54.634Z,100.00
2024-04-09T01:26:24.443Z,100.00
2024-04-09T01:28:52.712Z,100.00
2024-04-09T01:31:22.962Z,100.00
2024-04-09T01:33:53.535Z,100.00
2024-04-09T01:36:21.895Z,100.00
2024-04-09T01:38:50.575Z,100.00
2024-04-09T01:41:19.465Z,100.00
2024-04-09T01:43:49.861Z,100.00
2024-04-09T01:46:17.748Z,100.00
2024-04-09T01:48:46.051Z,100.00
2024-04-09T01:51:14.626Z,100.00
2024-04-09T01:53:47.561Z,100.00
2024-04-09T01:56:19.788Z,100.00
2024-04-09T01:58:47.972Z,100.00
2024-04-09T02:01:16.361Z,100.00
2024-04-09T02:03:45.055Z,100.00
2024-04-09T02:06:18.047Z,100.00
2024-04-09T02:08:46.580Z,100.00
2024-04-09T02:11:14.649Z,100.00
2024-04-09T02:13:43.680Z,100.00
2024-04-09T02:16:13.100Z,100.00
2024-04-09T02:18:41.782Z,100.00
2024-04-09T02:21:11.275Z,100.00
2024-04-09T02:23:44.737Z,100.00
2024-04-09T02:26:12.960Z,100.00
2024-04-09T02:28:41.023Z,100.00
2024-04-09T02:31:09.093Z,100.00
2024-04-09T02:33:37.736Z,100.00
2024-04-09T02:36:10.216Z,100.00
2024-04-09T02:38:38.777Z,100.00
2024-04-09T02:41:08.825Z,100.00
2024-04-09T02:43:37.085Z,100.00
2024-04-09T02:46:05.456Z,100.00
2024-04-09T02:48:34.089Z,100.00
2024-04-09T02:51:07.393Z,100.00
2024-04-09T02:53:36.261Z,100.00
2024-04-09T02:56:05.846Z,100.00
2024-04-09T02:58:35.918Z,100.00
2024-04-09T03:01:12.149Z,100.00
2024-04-09T03:03:40.973Z,100.00
2024-04-09T03:06:14.155Z,100.00
2024-04-09T03:08:43.425Z,100.00
2024-04-09T03:11:15.358Z,100.00
2024-04-09T03:13:45.895Z,100.00
2024-04-09T03:16:16.561Z,100.00
2024-04-09T03:18:45.754Z,100.00
2024-04-09T03:21:15.067Z,100.00
2024-04-09T03:23:43.754Z,100.00
2024-04-09T03:26:15.392Z,100.00
2024-04-09T03:28:43.539Z,100.00
2024-04-09T03:31:11.726Z,100.00
2024-04-09T03:33:40.316Z,100.00
2024-04-09T03:36:10.334Z,100.00
2024-04-09T03:38:38.544Z,100.00
2024-04-09T03:41:11.093Z,100.00
2024-04-09T03:43:40.824Z,100.00
2024-04-09T03:46:14.411Z,100.00
2024-04-09T03:48:46.842Z,100.00
2024-04-09T03:51:18.533Z,100.00
2024-04-09T03:53:48.987Z,100.00
2024-04-09T03:56:18.861Z,100.00
2024-04-09T03:58:53.114Z,100.00
2024-04-09T04:01:21.406Z,100.00
2024-04-09T04:03:50.374Z,100.00
2024-04-09T04:06:18.796Z,100.00
2024-04-09T04:08:47.151Z,100.00
2024-04-09T04:11:15.818Z,100.00
2024-04-09T04:13:44.299Z,100.00
2024-04-09T04:16:17.336Z,100.00
2024-04-09T04:18:49.411Z,100.00
2024-04-09T04:21:24.185Z,100.00
2024-04-09T04:23:56.704Z,100.00
2024-04-09T04:26:26.679Z,100.00
2024-04-09T04:28:56.276Z,100.00
2024-04-09T04:31:27.188Z,100.00
2024-04-09T04:34:00.310Z,100.00
2024-04-09T04:36:28.451Z,100.00
2024-04-09T04:38:56.722Z,100.00
2024-04-09T04:41:25.467Z,100.00
2024-04-09T04:44:19.135Z,100.00
2024-04-09T04:46:47.649Z,100.00
2024-04-09T04:49:19.834Z,100.00
2024-04-09T04:51:49.053Z,100.00
2024-04-09T04:54:19.239Z,100.00
2024-04-09T04:56:47.609Z,100.00
2024-04-09T04:59:25.276Z,100.00
2024-04-09T05:01:57.740Z,100.00
2024-04-09T05:04:27.215Z,100.00
2024-04-09T05:06:57.298Z,100.00
2024-04-09T05:09:26.974Z,100.00
2024-04-09T05:11:55.973Z,100.00
2024-04-09T05:14:25.528Z,100.00
2024-04-09T05:16:54.280Z,100.00
2024-04-09T05:19:25.413Z,100.00
2024-04-09T05:21:56.133Z,100.00
2024-04-09T05:24:24.661Z,100.00
2024-04-09T05:26:56.769Z,100.00
2024-04-09T05:29:26.003Z,100.00
2024-04-09T05:32:01.136Z,100.00
2024-04-09T05:34:29.577Z,100.00
2024-04-09T05:36:57.764Z,100.00
2024-04-09T05:39:26.108Z,100.00
2024-04-09T05:41:59.213Z,100.00
2024-04-09T05:44:27.426Z,100.00
2024-04-09T05:46:55.767Z,100.00
2024-04-09T05:49:24.556Z,100.00
2024-04-09T05:51:52.930Z,100.00
2024-04-09T05:54:23.400Z,100.00
2024-04-09T05:56:53.202Z,100.00
2024-04-09T05:59:24.370Z,100.00
2024-04-09T06:01:54.147Z,100.00
2024-04-09T06:04:25.452Z,100.00
2024-04-09T06:06:54.035Z,100.00
2024-04-09T06:09:22.641Z,100.00
2024-04-09T06:11:57.488Z,100.00
2024-04-09T06:14:27.428Z,100.00
2024-04-09T06:16:56.167Z,100.00
2024-04-09T06:19:26.012Z,100.00
2024-04-09T06:21:54.830Z,100.00
2024-04-09T06:24:23.881Z,100.00
2024-04-09T06:26:52.268Z,100.00
2024-04-09T06:29:23.456Z,100.00
2024-04-09T06:31:52.827Z,100.00
2024-04-09T06:34:21.007Z,100.00
2024-04-09T06:36:49.491Z,100.00
2024-04-09T06:39:17.758Z,100.00
2024-04-09T06:41:45.934Z,100.00
2024-04-09T06:44:15.969Z,100.00
2024-04-09T06:46:46.837Z,100.00
2024-04-09T06:49:14.996Z,100.00
2024-04-09T06:51:43.391Z,100.00
2024-04-09T06:54:15.711Z,100.00
2024-04-09T06:56:44.190Z,100.00
2024-04-09T06:59:14.599Z,100.00
2024-04-09T07:01:42.942Z,100.00
2024-04-09T07:04:13.425Z,100.00
2024-04-09T07:06:42.682Z,100.00
2024-04-09T07:09:19.118Z,100.00
2024-04-09T07:11:48.287Z,100.00
2024-04-09T07:14:18.572Z,100.00
2024-04-09T07:16:48.401Z,100.00
2024-04-09T07:19:20.006Z,100.00
2024-04-09T07:21:48.826Z,100.00
2024-04-09T07:24:17.745Z,100.00
2024-04-09T07:26:47.862Z,100.00
2024-04-09T07:29:16.391Z,100.00
2024-04-09T07:31:44.710Z,100.00
2024-04-09T07:34:12.881Z,100.00
2024-04-09T07:36:45.926Z,100.00
2024-04-09T07:39:19.263Z,100.00
2024-04-09T07:41:47.435Z,100.00
2024-04-09T07:44:19.178Z,100.00
2024-04-09T07:46:49.789Z,100.00
2024-04-09T07:49:24.714Z,100.00
2024-04-09T07:51:53.136Z,100.00
2024-04-09T07:54:27.952Z,100.00
2024-04-09T07:57:02.943Z,100.00
2024-04-09T07:59:31.639Z,100.00
2024-04-09T08:02:01.209Z,100.00
2024-04-09T08:04:30.086Z,100.00
2024-04-09T08:07:00.726Z,100.00
2024-04-09T08:09:30.638Z,100.00
2024-04-09T08:12:00.090Z,100.00
2024-04-09T08:14:29.039Z,100.00
2024-04-09T08:16:59.920Z,100.00
2024-04-09T08:19:32.523Z,100.00
2024-04-09T08:22:01.698Z,100.00
2024-04-09T08:24:33.570Z,100.00
2024-04-09T08:27:02.354Z,100.00
2024-04-09T08:29:33.105Z,100.00
2024-04-09T08:32:01.626Z,100.00
2024-04-09T08:34:30.381Z,100.00
2024-04-09T08:36:59.019Z,100.00
2024-04-09T08:39:28.207Z,100.00
2024-04-09T08:41:58.425Z,100.00
2024-04-09T08:44:32.619Z,100.00
2024-04-09T08:47:02.006Z,100.00
2024-04-09T08:49:31.196Z,100.00
2024-04-09T08:52:00.682Z,100.00
2024-04-09T08:54:30.988Z,100.00
2024-04-09T08:57:00.919Z,99.79
2024-04-09T08:59:32.645Z,99.28
2024-04-09T09:02:18.165Z,98.96
2024-04-09T09:04:50.770Z,97.35
2024-04-09T09:07:26.357Z,95.18
2024-04-09T09:10:02.689Z,93.49
2024-04-09T09:12:32.597Z,91.92
2024-04-09T09:15:06.352Z,89.75
2024-04-09T09:17:47.243Z,89.25
2024-04-09T09:20:17.633Z,87.56
2024-04-09T09:22:47.972Z,85.81
2024-04-09T09:25:32.850Z,85.02
2024-04-09T09:28:10.357Z,84.13
2024-04-09T09:30:44.880Z,82.91
2024-04-09T09:33:35.110Z,80.53
2024-04-09T09:36:10.652Z,76.98
2024-04-09T09:38:46.774Z,74.42
2024-04-09T09:41:36.807Z,72.23
2024-04-09T09:44:13.732Z,68.82
2024-04-09T09:46:46.829Z,68.02
2024-04-09T09:49:20.297Z,65.76
2024-04-09T09:51:50.983Z,63.34
2024-04-09T09:54:19.895Z,61.01
2024-04-09T09:56:54.220Z,59.02
2024-04-09T09:59:25.968Z,58.37
2024-04-09T10:01:57.709Z,57.09
2024-04-09T10:04:28.878Z,54.12
2024-04-09T10:07:15.990Z,52.86
2024-04-09T10:09:51.370Z,52.37
2024-04-09T10:12:24.952Z,52.21
2024-04-09T10:15:18.943Z,50.03
2024-04-09T10:17:54.233Z,47.96
2024-04-09T10:20:31.843Z,46.94
2024-04-09T10:23:03.757Z,46.27
2024-04-09T10:25:46.528Z,45.20
2024-04-09T10:28:34.300Z,44.38
2024-04-09T10:31:05.265Z,43.73
2024-04-09T10:33:36.461Z,42.85
2024-04-09T10:36:32.623Z,41.99
2024-04-09T10:39:13.695Z,41.28
2024-04-09T10:41:41.995Z,41.14
2024-04-09T10:44:13.410Z,40.58
2024-04-09T10:46:42.954Z,39.85
2024-04-09T10:49:11.986Z,39.11
2024-04-09T10:51:40.866Z,38.48
2024-04-09T10:54:15.498Z,38.35
2024-04-09T10:56:43.930Z,38.38
2024-04-09T10:59:23.113Z,37.97
2024-04-09T11:01:52.813Z,38.05
2024-04-09T11:04:27.668Z,37.79
2024-04-09T11:06:56.800Z,38.10
2024-04-09T11:09:28.569Z,38.58
2024-04-09T11:11:58.103Z,38.35
2024-04-09T11:14:27.513Z,38.41
2024-04-09T11:16:59.159Z,38.17
2024-04-09T11:19:30.839Z,37.80
2024-04-09T11:22:02.247Z,37.43
2024-04-09T11:24:31.865Z,36.41
2024-04-09T11:27:01.274Z,34.82
2024-04-09T11:29:33.840Z,33.71
2024-04-09T11:32:10.657Z,34.12
2024-04-09T11:34:46.799Z,32.93
2024-04-09T11:37:22.592Z,31.91
2024-04-09T11:39:55.755Z,31.29
2024-04-09T11:42:28.671Z,31.01
2024-04-09T11:45:04.119Z,32.44
2024-04-09T11:47:45.740Z,31.32
2024-04-09T11:50:43.645Z,30.82
2024-04-09T11:53:36.080Z,29.83
2024-04-09T11:56:15.442Z,28.87
2024-04-09T11:58:51.742Z,29.30
2024-04-09T12:01:20.393Z,29.22
2024-04-09T12:03:55.535Z,28.71
2024-04-09T12:06:31.815Z,27.36
2024-04-09T12:09:17.986Z,26.79
2024-04-09T12:11:46.462Z,27.26
2024-04-09T12:14:15.188Z,27.56
2024-04-09T12:16:46.006Z,26.94
2024-04-09T12:19:14.645Z,26.65
2024-04-09T12:21:44.906Z,27.33
2024-04-09T12:24:13.304Z,27.38
2024-04-09T12:26:43.374Z,26.97
2024-04-09T12:29:12.044Z,26.76
2024-04-09T12:31:44.536Z,26.47
2024-04-09T12:34:12.909Z,26.59
2024-04-09T12:36:42.486Z,26.54
2024-04-09T12:39:13.083Z,26.48
2024-04-09T12:41:49.024Z,26.31
2024-04-09T12:44:19.917Z,25.65
2024-04-09T12:46:57.398Z,25.50
2024-04-09T12:49:37.780Z,25.03
2024-04-09T12:52:29.715Z,24.98
2024-04-09T12:54:59.032Z,25.57
2024-04-09T12:57:34.873Z,25.69
2024-04-09T13:00:31.965Z,25.26
2024-04-09T13:03:02.835Z,25.38
2024-04-09T13:05:34.656Z,24.92
2024-04-09T13:08:08.921Z,24.17
2024-04-09T13:10:37.645Z,23.85
2024-04-09T13:13:11.852Z,23.56
2024-04-09T13:18:14.674Z,22.53
2024-04-09T13:20:45.228Z,22.73
2024-04-09T13:23:14.744Z,22.70
2024-04-09T13:25:47.572Z,22.89
2024-04-09T13:28:16.212Z,22.21
2024-04-09T13:30:44.419Z,22.57
2024-04-09T13:33:16.764Z,22.74
2024-04-09T13:35:46.052Z,23.33
2024-04-09T13:38:15.531Z,22.84
2024-04-09T13:40:44.564Z,22.36
2024-04-09T13:43:15.580Z,22.66
2024-04-09T13:45:44.945Z,23.58
2024-04-09T13:48:25.189Z,23.53
2024-04-09T13:50:58.373Z,23.28
2024-04-09T13:53:27.082Z,23.27
2024-04-09T13:55:55.349Z,22.59
2024-04-09T13:58:24.069Z,22.34
2024-04-09T14:01:02.842Z,22.52
2024-04-09T14:03:32.493Z,23.13
2024-04-09T14:06:01.380Z,23.19
2024-04-09T14:08:31.562Z,22.85
2024-04-09T14:11:03.086Z,22.60
2024-04-09T14:13:45.911Z,22.59
2024-04-09T14:16:20.841Z,22.58
2024-04-09T14:18:51.897Z,22.56
2024-04-09T14:21:21.572Z,22.45
2024-04-09T14:23:49.860Z,22.57
2024-04-09T14:26:21.612Z,22.63
2024-04-09T14:28:52.912Z,22.21
2024-04-09T14:31:21.516Z,22.02
2024-04-09T14:33:54.390Z,21.97
2024-04-09T14:36:24.481Z,21.89
2024-04-09T14:38:53.361Z,22.07
2024-04-09T14:41:25.140Z,22.36
2024-04-09T14:43:55.866Z,21.95
2024-04-09T14:46:24.971Z,21.63
2024-04-09T14:48:56.543Z,22.18
2024-04-09T14:51:25.231Z,22.46
2024-04-09T14:53:53.521Z,22.41
2024-04-09T14:56:22.101Z,22.23
2024-04-09T14:58:54.200Z,21.90
2024-04-09T15:01:25.926Z,22.15
2024-04-09T15:03:56.187Z,22.31
2024-04-09T15:06:27.324Z,22.32
2024-04-09T15:08:56.925Z,21.97
2024-04-09T15:11:28.032Z,21.50
2024-04-09T15:13:56.335Z,21.72
2024-04-09T15:16:25.021Z,21.98
2024-04-09T15:18:53.578Z,21.62
2024-04-09T15:21:22.006Z,22.11
2024-04-09T15:23:50.486Z,22.07
2024-04-09T15:26:19.050Z,22.08
2024-04-09T15:28:48.166Z,21.98
2024-04-09T15:31:16.617Z,22.06
2024-04-09T15:33:50.463Z,22.07
2024-04-09T15:36:19.422Z,22.23
2024-04-09T15:38:50.389Z,22.19
2024-04-09T15:41:19.786Z,22.40
2024-04-09T15:43:50.532Z,22.86
2024-04-09T15:46:20.259Z,23.13
2024-04-09T15:48:48.579Z,23.03
2024-04-09T15:51:18.751Z,22.98
2024-04-09T15:53:48.632Z,23.00
2024-04-09T15:56:17.938Z,23.29
2024-04-09T15:58:46.905Z,23.75
2024-04-09T16:01:15.296Z,23.89
2024-04-09T16:03:44.121Z,24.26
2024-04-09T16:06:12.623Z,24.42
2024-04-09T16:08:41.081Z,24.55
2024-04-09T16:11:10.691Z,24.74
2024-04-09T16:13:42.462Z,24.83
2024-04-09T16:16:16.292Z,24.98
2024-04-09T16:18:47.767Z,25.46
2024-04-09T16:21:18.391Z,25.71
2024-04-09T16:23:47.496Z,26.26
2024-04-09T16:26:15.760Z,26.72
2024-04-09T16:28:48.102Z,27.19
2024-04-09T16:31:16.283Z,27.77
2024-04-09T16:33:44.438Z,28.28
2024-04-09T16:36:16.185Z,28.69
2024-04-09T16:38:44.718Z,29.16
2024-04-09T16:41:14.574Z,29.50
2024-04-09T16:43:43.456Z,29.84
2024-04-09T16:46:12.234Z,30.46
2024-04-09T16:48:40.566Z,31.07
2024-04-09T16:51:09.543Z,31.52
2024-04-09T16:53:39.235Z,31.74
2024-04-09T16:56:07.664Z,32.06
2024-04-09T16:58:35.918Z,32.50
2024-04-09T17:01:08.097Z,32.76
2024-04-09T17:03:38.430Z,33.20
2024-04-09T17:06:12.328Z,34.16
2024-04-09T17:08:43.042Z,33.26
2024-04-09T17:11:14.914Z,34.13
2024-04-09T17:13:47.780Z,35.40
2024-04-09T17:16:16.416Z,36.05
2024-04-09T17:18:45.312Z,36.87
2024-04-09T17:21:15.105Z,36.15
2024-04-09T17:23:44.356Z,35.57
2024-04-09T17:26:19.024Z,36.85
2024-04-09T17:28:48.498Z,37.74
2024-04-09T17:31:17.223Z,38.30
2024-04-09T17:33:51.770Z,37.97
2024-04-09T17:36:20.459Z,39.42
2024-04-09T17:38:48.950Z,40.29
2024-04-09T17:41:18.359Z,38.99
2024-04-09T17:43:48.097Z,38.60
2024-04-09T17:46:16.196Z,38.87
2024-04-09T17:48:49.501Z,39.12
2024-04-09T17:51:18.299Z,39.95
2024-04-09T17:53:46.769Z,40.58
2024-04-09T17:56:18.807Z,41.99
2024-04-09T17:58:47.154Z,42.65
2024-04-09T18:01:22.679Z,45.24
2024-04-09T18:03:56.339Z,46.33
2024-04-09T18:06:28.044Z,47.34
2024-04-09T18:08:57.423Z,48.71
2024-04-09T18:11:26.237Z,48.66
2024-04-09T18:13:54.455Z,47.90
2024-04-09T18:16:25.131Z,48.10
2024-04-09T18:18:54.854Z,49.93
2024-04-09T18:21:29.674Z,50.11
2024-04-09T18:23:58.693Z,50.52
2024-04-09T18:26:27.660Z,52.54
2024-04-09T18:28:56.009Z,54.36
2024-04-09T18:31:25.612Z,59.08
2024-04-09T18:33:53.709Z,60.52
2024-04-09T18:36:23.207Z,62.18
2024-04-09T18:38:51.308Z,63.32
2024-04-09T18:41:20.161Z,64.52
2024-04-09T18:46:21.989Z,66.61
2024-04-09T18:48:53.624Z,69.66
2024-04-09T18:51:21.877Z,72.81
2024-04-09T18:53:50.138Z,75.06
2024-04-09T18:56:18.462Z,73.64
2024-04-09T18:58:47.198Z,76.42
2024-04-09T19:01:15.323Z,78.25
2024-04-09T19:03:43.712Z,80.51
2024-04-09T19:06:13.377Z,81.95
2024-04-09T19:08:41.843Z,84.08
2024-04-09T19:11:10.750Z,83.49
2024-04-09T19:13:40.292Z,85.83
2024-04-09T19:16:10.206Z,87.02
2024-04-09T19:18:39.979Z,89.07
2024-04-09T19:21:09.599Z,90.77
2024-04-09T19:23:38.188Z,90.01
2024-04-09T19:26:07.430Z,91.46
2024-04-09T19:28:38.506Z,92.80
2024-04-09T19:31:06.592Z,94.91
2024-04-09T19:33:36.298Z,95.93
2024-04-09T19:36:06.302Z,97.38
2024-04-09T19:38:35.002Z,98.09
2024-04-09T19:41:03.523Z,97.27
2024-04-09T19:43:38.804Z,96.76
2024-04-09T19:46:12.872Z,98.38
2024-04-09T19:48:41.000Z,99.81
2024-04-09T19:51:09.301Z,99.66
2024-04-09T19:53:49.757Z,99.85
2024-04-09T19:56:23.048Z,100.00
2024-04-09T19:58:51.475Z,100.00
2024-04-09T20:01:20.476Z,100.00
2024-04-09T20:03:49.192Z,99.98
2024-04-09T20:06:17.564Z,100.00
2024-04-09T20:08:45.739Z,100.00
2024-04-09T20:11:14.255Z,100.00
2024-04-09T20:13:43.395Z,100.00
2024-04-09T20:16:12.548Z,100.00
2024-04-09T20:18:40.951Z,100.00
2024-04-09T20:21:09.378Z,100.00
2024-04-09T20:23:38.560Z,100.00
2024-04-09T20:26:07.881Z,100.00
2024-04-09T20:28:36.941Z,100.00
2024-04-09T20:31:10.235Z,100.00
2024-04-09T20:33:38.953Z,100.00
2024-04-09T20:36:11.129Z,100.00
2024-04-09T20:38:39.424Z,100.00
2024-04-09T20:41:10.108Z,100.00
2024-04-09T20:43:38.267Z,100.00
2024-04-09T20:46:08.787Z,100.00
2024-04-09T20:48:37.731Z,100.00
2024-04-09T20:51:07.090Z,100.00
2024-04-09T20:53:37.465Z,100.00
2024-04-09T20:56:06.578Z,100.00
2024-04-09T20:58:35.423Z,100.00
2024-04-09T21:01:04.859Z,100.00
2024-04-09T21:03:33.394Z,100.00
2024-04-09T21:06:03.451Z,100.00
2024-04-09T21:08:31.610Z,100.00
2024-04-09T21:10:59.756Z,100.00
2024-04-09T21:13:28.251Z,100.00
2024-04-09T21:15:56.803Z,100.00
2024-04-09T21:18:26.898Z,100.00
2024-04-09T21:20:56.288Z,100.00
2024-04-09T21:23:24.547Z,100.00
2024-04-09T21:25:52.735Z,100.00
2024-04-09T21:28:20.927Z,100.00
2024-04-09T21:30:48.931Z,100.00
2024-04-09T21:33:17.123Z,100.00
2024-04-09T21:35:45.682Z,100.00
2024-04-09T21:38:15.136Z,100.00
2024-04-09T21:40:45.459Z,100.00
2024-04-09T21:43:14.490Z,100.00
2024-04-09T21:45:42.561Z,100.00
2024-04-09T21:48:10.879Z,100.00
2024-04-09T21:50:40.141Z,100.00
2024-04-09T21:53:08.488Z,100.00
2024-04-09T21:55:36.623Z,100.00
2024-04-09T21:58:05.661Z,100.00
2024-04-09T22:00:35.756Z,100.00
2024-04-09T22:03:05.248Z,100.00
2024-04-09T22:05:34.146Z,100.00
2024-04-09T22:08:02.821Z,100.00
2024-04-09T22:10:31.261Z,100.00
2024-04-09T22:13:00.396Z,100.00
2024-04-09T22:15:29.272Z,100.00
2024-04-09T22:18:00.055Z,100.00
2024-04-09T22:20:41.170Z,100.00
2024-04-09T22:23:14.958Z,100.00
2024-04-09T22:25:43.809Z,100.00
2024-04-09T22:28:12.232Z,100.00
2024-04-09T22:30:40.630Z,100.00
2024-04-09T22:33:09.525Z,100.00
2024-04-09T22:35:38.129Z,100.00
2024-04-09T22:38:06.789Z,100.00
2024-04-09T22:40:38.113Z,100.00
2024-04-09T22:43:10.949Z,100.00
2024-04-09T22:45:39.681Z,100.00
2024-04-09T22:48:09.315Z,100.00
2024-04-09T22:50:38.067Z,100.00
2024-04-09T22:53:08.389Z,100.00
2024-04-09T22:55:38.118Z,100.00
2024-04-09T22:58:06.947Z,100.00
2024-04-09T23:00:35.274Z,100.00
2024-04-09T23:03:07.268Z,100.00
2024-04-09T23:05:35.497Z,100.00
2024-04-09T23:08:07.921Z,100.00
2024-04-09T23:10:36.191Z,100.00
2024-04-09T23:13:04.564Z,100.00
2024-04-09T23:15:32.687Z,100.00
2024-04-09T23:18:01.166Z,100.00
2024-04-09T23:20:29.686Z,100.00
2024-04-09T23:22:58.202Z,100.00
2024-04-09T23:25:26.725Z,100.00
2024-04-09T23:27:54.704Z,100.00
2024-04-09T23:30:22.784Z,100.00
2024-04-09T23:32:52.448Z,100.00
2024-04-09T23:35:21.755Z,100.00
2024-04-09T23:37:51.684Z,100.00
2024-04-09T23:40:20.028Z,100.00
2024-04-09T23:42:48.298Z,100.00
2024-04-09T23:45:16.680Z,100.00
2024-04-09T23:47:45.229Z,100.00
2024-04-09T23:50:13.830Z,100.00
2024-04-09T23:52:41.930Z,100.00
2024-04-09T23:55:10.012Z,100.00
2024-04-09T23:57:39.382Z,100.00
